createdAt,value
2022-09-27T00:01:03.394Z,0.80
2022-09-27T00:03:30.172Z,0.80
2022-09-27T00:06:11.654Z,1.00
2022-09-27T00:08:38.049Z,0.97
2022-09-27T00:11:05.601Z,1.23
2022-09-27T00:13:32.176Z,1.10
2022-09-27T00:15:59.527Z,1.10
2022-09-27T00:18:26.240Z,0.93
2022-09-27T00:20:52.996Z,1.07
2022-09-27T00:23:19.455Z,1.30
2022-09-27T00:25:55.882Z,1.10
2022-09-27T00:28:22.422Z,1.13
2022-09-27T00:30:48.777Z,1.30
2022-09-27T00:33:15.165Z,1.27
2022-09-27T00:35:41.563Z,1.30
2022-09-27T00:38:07.949Z,1.43
2022-09-27T00:40:34.403Z,1.20
2022-09-27T00:43:00.762Z,1.30
2022-09-27T00:45:27.186Z,1.27
2022-09-27T00:47:58.769Z,1.40
2022-09-27T00:50:31.629Z,1.20
2022-09-27T00:53:02.794Z,1.50
2022-09-27T00:55:34.803Z,1.70
2022-09-27T00:58:02.711Z,1.60
2022-09-27T01:00:29.064Z,1.43
2022-09-27T01:02:55.938Z,1.50
2022-09-27T01:05:24.326Z,1.50
2022-09-27T01:07:50.922Z,1.70
2022-09-27T01:10:18.251Z,1.63
2022-09-27T01:13:02.913Z,1.40
2022-09-27T01:15:43.772Z,1.90
2022-09-27T01:18:28.920Z,1.93
2022-09-27T01:21:06.155Z,1.97
2022-09-27T01:23:50.376Z,2.03
2022-09-27T01:26:19.889Z,1.97
2022-09-27T01:29:04.172Z,1.90
2022-09-27T01:31:33.692Z,1.90
2022-09-27T01:34:05.976Z,2.23
2022-09-27T01:36:51.507Z,1.73
2022-09-27T01:39:18.300Z,2.10
2022-09-27T01:42:21.304Z,1.93
2022-09-27T01:45:02.486Z,2.07
2022-09-27T01:47:39.368Z,2.60
2022-09-27T01:50:44.616Z,2.00
2022-09-27T01:53:32.229Z,2.50
2022-09-27T01:56:31.677Z,2.53
2022-09-27T01:59:19.583Z,2.80
2022-09-27T02:01:54.690Z,3.00
2022-09-27T02:04:31.354Z,3.00
2022-09-27T02:07:17.531Z,3.10
2022-09-27T02:09:54.131Z,3.07
2022-09-27T02:12:27.784Z,3.27
2022-09-27T02:14:59.070Z,2.70
2022-09-27T02:17:29.690Z,2.93
2022-09-27T02:20:03.330Z,3.00
2022-09-27T02:22:40.795Z,2.70
2022-09-27T02:25:13.672Z,2.20
2022-09-27T02:27:46.169Z,2.20
2022-09-27T02:30:14.056Z,2.13
2022-09-27T02:32:43.321Z,1.80
2022-09-27T02:35:17.372Z,1.97
2022-09-27T02:37:44.357Z,1.57
2022-09-27T02:40:11.165Z,1.80
2022-09-27T02:42:38.384Z,1.80
2022-09-27T02:45:05.248Z,1.70
2022-09-27T02:47:50.422Z,1.93
2022-09-27T02:50:20.430Z,1.90
2022-09-27T02:53:01.358Z,1.90
2022-09-27T02:55:49.599Z,1.70
2022-09-27T02:58:48.520Z,1.40
2022-09-27T03:01:32.888Z,1.40
2022-09-27T03:04:30.247Z,1.73
2022-09-27T03:06:58.225Z,1.50
2022-09-27T03:09:28.753Z,1.77
2022-09-27T03:11:55.735Z,1.40
2022-09-27T03:14:22.588Z,1.70
2022-09-27T03:17:06.811Z,1.47
2022-09-27T03:20:08.917Z,1.40
2022-09-27T03:22:47.012Z,1.27
2022-09-27T03:25:13.852Z,1.20
2022-09-27T03:27:40.753Z,1.10
2022-09-27T03:30:07.635Z,1.10
2022-09-27T03:32:34.085Z,1.00
2022-09-27T03:35:20.911Z,1.00
2022-09-27T03:37:47.743Z,1.10
2022-09-27T03:40:14.318Z,1.20
2022-09-27T03:42:42.518Z,1.40
2022-09-27T03:45:11.637Z,1.07
2022-09-27T03:47:41.662Z,0.90
2022-09-27T03:50:08.689Z,1.17
2022-09-27T03:52:35.789Z,1.00
2022-09-27T03:55:02.664Z,0.80
2022-09-27T03:57:31.835Z,0.70
2022-09-27T03:59:59.825Z,1.00
2022-09-27T04:02:38.392Z,0.77
2022-09-27T04:05:24.054Z,1.10
2022-09-27T04:07:54.227Z,0.90
2022-09-27T04:10:21.606Z,0.83
2022-09-27T04:12:48.529Z,0.80
2022-09-27T04:15:15.147Z,0.90
2022-09-27T04:17:51.052Z,0.80
2022-09-27T04:20:32.433Z,1.20
2022-09-27T04:23:01.221Z,0.70
2022-09-27T04:25:28.104Z,0.80
2022-09-27T04:27:57.137Z,0.70
2022-09-27T04:30:23.515Z,0.77
2022-09-27T04:33:08.344Z,0.87
2022-09-27T04:36:19.527Z,0.70
2022-09-27T04:39:00.427Z,0.70
2022-09-27T04:41:28.357Z,0.80
2022-09-27T04:43:59.135Z,0.70
2022-09-27T04:46:26.363Z,0.63
2022-09-27T04:48:52.913Z,0.77
2022-09-27T04:51:20.136Z,0.80
2022-09-27T04:53:47.453Z,0.80
2022-09-27T04:56:14.694Z,1.00
2022-09-27T04:58:41.061Z,0.90
2022-09-27T05:01:09.240Z,1.30
2022-09-27T05:03:55.869Z,0.90
2022-09-27T05:06:23.590Z,1.07
2022-09-27T05:08:49.995Z,1.30
2022-09-27T05:11:19.087Z,0.90
2022-09-27T05:14:04.507Z,0.90
2022-09-27T05:16:39.196Z,0.80
2022-09-27T05:19:24.417Z,0.80
2022-09-27T05:21:59.558Z,1.00
2022-09-27T05:24:27.929Z,1.30
2022-09-27T05:26:54.571Z,1.30
2022-09-27T05:29:21.554Z,1.40
2022-09-27T05:32:03.012Z,1.20
2022-09-27T05:34:32.736Z,1.53
2022-09-27T05:36:59.621Z,1.50
2022-09-27T05:39:27.104Z,1.20
2022-09-27T05:41:55.171Z,1.33
2022-09-27T05:44:21.927Z,1.40
2022-09-27T05:47:00.377Z,1.50
2022-09-27T05:49:26.842Z,1.47
2022-09-27T05:51:53.169Z,1.40
2022-09-27T05:54:19.599Z,1.50
2022-09-27T05:56:46.070Z,1.10
2022-09-27T05:59:24.589Z,1.20
2022-09-27T06:02:20.120Z,1.10
2022-09-27T06:05:12.101Z,1.20
2022-09-27T06:08:11.293Z,1.10
2022-09-27T06:10:42.995Z,1.30
2022-09-27T06:13:11.569Z,1.00
2022-09-27T06:15:42.321Z,1.20
2022-09-27T06:18:11.039Z,1.10
2022-09-27T06:20:39.185Z,0.90
2022-09-27T06:23:07.524Z,0.90
2022-09-27T06:25:34.961Z,1.10
2022-09-27T06:28:12.624Z,1.00
2022-09-27T06:30:40.932Z,0.90
2022-09-27T06:33:16.674Z,1.00
2022-09-27T06:35:50.043Z,0.90
2022-09-27T06:38:18.442Z,0.80
2022-09-27T06:40:51.879Z,0.83
2022-09-27T06:43:31.227Z,0.60
2022-09-27T06:46:16.312Z,0.60
2022-09-27T06:49:07.608Z,0.60
2022-09-27T06:51:35.847Z,0.60
2022-09-27T06:54:02.370Z,0.70
2022-09-27T06:56:28.687Z,0.77
2022-09-27T06:59:13.948Z,0.50
2022-09-27T07:01:43.820Z,0.60
2022-09-27T07:04:16.183Z,0.80
2022-09-27T07:07:09.116Z,0.60
2022-09-27T07:09:40.214Z,0.60
2022-09-27T07:12:07.254Z,0.73
2022-09-27T07:14:34.675Z,0.63
2022-09-27T07:17:02.277Z,0.70
2022-09-27T07:19:34.010Z,0.50
2022-09-27T07:22:01.375Z,0.50
2022-09-27T07:24:28.236Z,0.40
2022-09-27T07:26:55.381Z,0.43
2022-09-27T07:29:22.565Z,0.50
2022-09-27T07:31:52.398Z,0.30
2022-09-27T07:34:19.013Z,0.50
2022-09-27T07:36:45.814Z,0.40
2022-09-27T07:39:12.762Z,0.50
2022-09-27T07:41:40.381Z,0.57
2022-09-27T07:44:08.103Z,0.40
2022-09-27T07:46:42.615Z,0.50
2022-09-27T07:49:18.133Z,0.53
2022-09-27T07:52:03.091Z,0.60
2022-09-27T07:54:32.083Z,0.80
2022-09-27T07:57:17.225Z,0.90
2022-09-27T07:59:49.610Z,0.80
2022-09-27T08:02:18.685Z,1.30
2022-09-27T08:04:49.572Z,1.30
2022-09-27T08:07:16.468Z,1.50
2022-09-27T08:09:45.823Z,1.23
2022-09-27T08:12:12.830Z,1.33
2022-09-27T08:14:43.908Z,1.10
2022-09-27T08:17:11.810Z,1.10
2022-09-27T08:19:58.215Z,1.33
2022-09-27T08:22:45.560Z,1.87
2022-09-27T08:25:34.957Z,1.20
2022-09-27T08:28:05.086Z,1.53
2022-09-27T08:30:42.142Z,1.40
2022-09-27T08:33:08.612Z,1.70
2022-09-27T08:35:35.422Z,1.83
2022-09-27T08:38:03.169Z,2.10
2022-09-27T08:40:36.305Z,1.90
2022-09-27T08:43:10.080Z,2.57
2022-09-27T08:45:41.999Z,2.03
2022-09-27T08:48:09.928Z,2.40
2022-09-27T08:50:40.057Z,1.93
2022-09-27T08:53:20.344Z,1.83
2022-09-27T08:55:51.338Z,2.00
2022-09-27T08:58:30.817Z,2.10
2022-09-27T09:00:59.977Z,2.10
2022-09-27T09:03:32.217Z,2.07
2022-09-27T09:06:07.754Z,2.13
2022-09-27T09:08:46.301Z,1.70
2022-09-27T09:11:33.912Z,1.77
2022-09-27T09:14:13.712Z,1.70
2022-09-27T09:16:47.278Z,2.00
2022-09-27T09:19:32.549Z,2.20
2022-09-27T09:22:28.986Z,2.43
2022-09-27T09:25:07.861Z,2.20
2022-09-27T09:27:46.684Z,2.60
2022-09-27T09:30:23.777Z,2.67
2022-09-27T09:33:10.883Z,2.50
2022-09-27T09:35:41.594Z,2.70
2022-09-27T09:38:34.471Z,2.53
2022-09-27T09:41:05.352Z,2.37
2022-09-27T09:43:41.771Z,2.40
2022-09-27T09:46:12.454Z,2.10
2022-09-27T09:48:43.998Z,2.00
2022-09-27T09:51:15.128Z,2.20
2022-09-27T09:54:04.973Z,2.40
2022-09-27T09:56:45.690Z,1.97
2022-09-27T09:59:20.965Z,1.33
2022-09-27T10:01:50.535Z,2.10
2022-09-27T10:04:20.745Z,2.73
2022-09-27T10:06:47.788Z,3.10
2022-09-27T10:09:18.097Z,2.90
2022-09-27T10:12:04.293Z,3.20
2022-09-27T10:14:30.745Z,3.30
2022-09-27T10:17:04.115Z,3.40
2022-09-27T10:19:34.726Z,2.63
2022-09-27T10:22:12.213Z,2.70
2022-09-27T10:24:54.144Z,1.53
2022-09-27T10:27:51.847Z,1.27
2022-09-27T10:30:23.956Z,1.37
2022-09-27T10:32:52.569Z,1.60
2022-09-27T10:35:43.522Z,1.30
2022-09-27T10:38:20.468Z,1.13
2022-09-27T10:40:47.507Z,1.10
2022-09-27T10:43:29.911Z,1.00
2022-09-27T10:46:08.858Z,0.80
2022-09-27T10:48:36.231Z,0.80
2022-09-27T10:51:04.708Z,0.90
2022-09-27T10:53:36.944Z,1.00
2022-09-27T10:56:19.881Z,1.20
2022-09-27T10:58:46.404Z,1.00
2022-09-27T11:01:14.282Z,1.20
2022-09-27T11:04:02.823Z,1.27
2022-09-27T11:06:32.076Z,1.33
2022-09-27T11:09:09.760Z,1.20
2022-09-27T11:11:36.631Z,1.27
2022-09-27T11:14:04.465Z,1.30
2022-09-27T11:16:52.180Z,1.50
2022-09-27T11:19:21.647Z,1.47
2022-09-27T11:21:58.279Z,1.63
2022-09-27T11:24:34.856Z,1.20
2022-09-27T11:27:21.634Z,1.40
2022-09-27T11:29:50.987Z,1.23
2022-09-27T11:32:47.913Z,1.37
2022-09-27T11:35:26.773Z,1.40
2022-09-27T11:38:02.880Z,1.10
2022-09-27T11:40:32.825Z,1.13
2022-09-27T11:43:05.597Z,0.97
2022-09-27T11:46:10.878Z,0.80
2022-09-27T11:48:42.922Z,0.90
2022-09-27T11:51:27.714Z,0.90
2022-09-27T11:53:57.138Z,0.80
2022-09-27T11:56:42.845Z,1.30
2022-09-27T11:59:29.475Z,0.97
2022-09-27T12:02:00.937Z,1.07
2022-09-27T12:04:43.962Z,0.70
2022-09-27T12:07:16.731Z,0.60
2022-09-27T12:09:47.164Z,0.70
2022-09-27T12:12:18.212Z,1.17
2022-09-27T12:14:53.762Z,1.10
2022-09-27T12:17:26.343Z,0.50
2022-09-27T12:19:58.692Z,0.60
2022-09-27T12:22:58.469Z,0.43
2022-09-27T12:25:40.171Z,0.60
2022-09-27T12:28:22.420Z,0.70
2022-09-27T12:31:11.069Z,0.40
2022-09-27T12:33:45.922Z,0.30
2022-09-27T12:36:16.638Z,0.40
2022-09-27T12:39:06.435Z,2.10
2022-09-27T12:41:36.924Z,2.47
2022-09-27T12:44:17.289Z,0.93
2022-09-27T12:46:50.867Z,0.30
2022-09-27T12:49:36.268Z,2.00
2022-09-27T12:52:04.706Z,1.30
2022-09-27T12:54:37.546Z,1.40
2022-09-27T12:57:17.847Z,1.37
2022-09-27T13:00:12.714Z,1.10
2022-09-27T13:06:11.908Z,0.50
2022-09-27T13:08:45.678Z,0.53
2022-09-27T13:11:23.346Z,0.40
2022-09-27T13:13:54.283Z,0.43
2022-09-27T13:16:21.575Z,0.40
2022-09-27T13:18:53.020Z,0.50
2022-09-27T13:21:52.759Z,0.47
2022-09-27T13:24:43.445Z,0.60
2022-09-27T13:27:36.896Z,0.50
2022-09-27T13:30:07.421Z,0.50
2022-09-27T13:32:36.462Z,0.70
2022-09-27T13:35:21.567Z,0.80
2022-09-27T13:38:22.203Z,0.90
2022-09-27T13:40:49.913Z,0.90
2022-09-27T13:43:28.059Z,1.00
2022-09-27T13:46:07.909Z,1.20
2022-09-27T13:48:45.438Z,0.90
2022-09-27T13:51:17.999Z,0.90
2022-09-27T13:53:55.104Z,1.10
2022-09-27T13:56:36.870Z,1.10
2022-09-27T13:59:08.535Z,1.13
2022-09-27T14:01:54.575Z,1.40
2022-09-27T14:04:29.503Z,1.40
2022-09-27T14:06:58.156Z,1.20
2022-09-27T14:09:38.537Z,1.80
2022-09-27T14:12:19.042Z,1.40
2022-09-27T14:14:47.295Z,1.30
2022-09-27T14:17:14.824Z,1.27
2022-09-27T14:19:44.567Z,1.40
2022-09-27T14:22:13.640Z,1.30
2022-09-27T14:24:51.829Z,1.70
2022-09-27T14:27:34.402Z,1.43
2022-09-27T14:30:14.809Z,1.43
2022-09-27T14:32:58.461Z,1.30
2022-09-27T14:36:07.360Z,1.47
2022-09-27T14:38:39.248Z,2.00
2022-09-27T14:41:35.502Z,1.30
2022-09-27T14:44:01.988Z,0.80
2022-09-27T14:46:30.187Z,0.40
2022-09-27T14:48:56.716Z,0.43
2022-09-27T14:51:28.171Z,0.50
2022-09-27T14:54:00.570Z,0.50
2022-09-27T14:56:32.279Z,0.50
2022-09-27T14:59:11.337Z,0.60
2022-09-27T15:01:42.541Z,0.60
2022-09-27T15:04:13.894Z,0.50
2022-09-27T15:06:40.809Z,0.67
2022-09-27T15:09:10.107Z,0.60
2022-09-27T15:11:36.846Z,0.60
2022-09-27T15:14:04.705Z,0.63
2022-09-27T15:16:31.555Z,0.70
2022-09-27T15:18:59.262Z,0.70
2022-09-27T15:21:30.410Z,0.83
2022-09-27T15:23:58.765Z,1.47
2022-09-27T15:26:27.033Z,0.80
2022-09-27T15:28:53.672Z,0.73
2022-09-27T15:31:34.781Z,0.80
2022-09-27T15:34:01.897Z,0.80
2022-09-27T15:36:47.099Z,0.80
2022-09-27T15:39:17.532Z,0.90
2022-09-27T15:42:02.113Z,0.80
2022-09-27T15:44:36.808Z,0.90
2022-09-27T15:47:03.208Z,0.90
2022-09-27T15:49:30.802Z,0.93
2022-09-27T15:51:58.574Z,1.00
2022-09-27T15:54:27.249Z,1.10
2022-09-27T15:56:55.977Z,1.10
2022-09-27T15:59:23.945Z,1.10
2022-09-27T16:01:51.276Z,1.10
2022-09-27T16:04:17.664Z,0.97
2022-09-27T16:06:44.394Z,0.93
2022-09-27T16:09:20.401Z,1.00
2022-09-27T16:11:50.144Z,1.33
2022-09-27T16:14:18.414Z,2.13
2022-09-27T16:16:46.529Z,2.10
2022-09-27T16:19:12.930Z,1.60
2022-09-27T16:21:39.268Z,0.90
2022-09-27T16:24:06.445Z,0.90
2022-09-27T16:26:34.069Z,0.80
2022-09-27T16:29:00.460Z,0.73
2022-09-27T16:31:26.997Z,0.80
2022-09-27T16:33:53.424Z,0.70
2022-09-27T16:36:20.632Z,0.80
2022-09-27T16:38:53.626Z,0.70
2022-09-27T16:41:20.903Z,0.60
2022-09-27T16:43:47.715Z,0.80
2022-09-27T16:46:15.964Z,0.60
2022-09-27T16:48:42.554Z,0.40
2022-09-27T16:51:38.009Z,0.70
2022-09-27T16:54:05.664Z,0.70
2022-09-27T16:56:32.561Z,0.57
2022-09-27T16:58:59.850Z,0.60
2022-09-27T17:01:28.143Z,0.60
2022-09-27T17:03:56.857Z,0.70
2022-09-27T17:06:24.267Z,0.80
2022-09-27T17:08:50.625Z,0.90
2022-09-27T17:11:18.123Z,0.83
2022-09-27T17:13:44.765Z,0.90
2022-09-27T17:16:11.901Z,0.80
2022-09-27T17:18:38.893Z,0.80
2022-09-27T17:21:06.150Z,0.93
2022-09-27T17:23:33.011Z,0.90
2022-09-27T17:26:13.992Z,1.20
2022-09-27T17:28:41.082Z,1.40
2022-09-27T17:31:11.764Z,1.83
2022-09-27T17:33:43.363Z,2.23
2022-09-27T17:36:17.331Z,3.33
2022-09-27T17:38:44.585Z,3.07
2022-09-27T17:41:12.621Z,2.07
2022-09-27T17:43:39.730Z,2.07
2022-09-27T17:46:07.677Z,2.07
2022-09-27T17:48:53.012Z,1.80
2022-09-27T17:51:19.366Z,1.50
2022-09-27T17:53:45.867Z,1.63
2022-09-27T17:56:12.585Z,1.30
2022-09-27T17:58:39.087Z,1.30
2022-09-27T18:01:07.274Z,1.57
2022-09-27T18:03:34.329Z,1.27
2022-09-27T18:06:04.477Z,1.50
2022-09-27T18:08:32.281Z,1.50
2022-09-27T18:11:05.988Z,1.50
2022-09-27T18:13:37.130Z,1.60
2022-09-27T18:16:05.008Z,1.60
2022-09-27T18:18:32.944Z,1.33
2022-09-27T18:21:03.535Z,1.60
2022-09-27T18:23:30.933Z,1.83
2022-09-27T18:25:58.142Z,1.50
2022-09-27T18:28:28.978Z,1.37
2022-09-27T18:30:55.619Z,1.57
2022-09-27T18:33:21.988Z,1.70
2022-09-27T18:35:48.670Z,2.27
2022-09-27T18:38:15.022Z,2.30
2022-09-27T18:40:55.794Z,3.00
2022-09-27T18:43:25.643Z,3.30
2022-09-27T18:45:52.009Z,2.63
2022-09-27T18:48:18.396Z,2.93
2022-09-27T18:50:45.523Z,2.47
2022-09-27T18:53:12.042Z,1.77
2022-09-27T18:55:38.848Z,1.67
2022-09-27T18:58:05.387Z,1.57
2022-09-27T19:00:31.758Z,1.90
2022-09-27T19:02:58.236Z,1.67
2022-09-27T19:05:24.619Z,1.80
2022-09-27T19:07:51.013Z,1.83
2022-09-27T19:10:26.313Z,1.93
2022-09-27T19:13:03.005Z,1.60
2022-09-27T19:16:05.042Z,1.40
2022-09-27T19:18:58.894Z,1.53
2022-09-27T19:21:27.483Z,1.50
2022-09-27T19:24:24.303Z,1.50
2022-09-27T19:30:45.247Z,1.27
2022-09-27T19:33:14.324Z,1.60
2022-09-27T19:36:11.188Z,1.23
2022-09-27T19:38:46.179Z,1.37
2022-09-27T19:41:29.367Z,1.20
2022-09-27T19:43:56.478Z,1.30
2022-09-27T19:46:37.764Z,1.27
2022-09-27T19:49:05.571Z,1.13
2022-09-27T19:51:32.456Z,1.40
2022-09-27T19:53:58.905Z,1.67
2022-09-27T19:56:25.279Z,1.00
2022-09-27T19:58:51.973Z,1.73
2022-09-27T20:01:20.309Z,1.50
2022-09-27T20:03:47.667Z,1.70
2022-09-27T20:06:15.383Z,1.07
2022-09-27T20:08:42.500Z,1.30
2022-09-27T20:11:10.055Z,1.17
2022-09-27T20:13:37.193Z,1.13
2022-09-27T20:16:05.217Z,1.40
2022-09-27T20:18:31.654Z,1.20
2022-09-27T20:21:04.107Z,1.50
2022-09-27T20:23:31.639Z,1.60
2022-09-27T20:26:05.751Z,1.40
2022-09-27T20:28:32.097Z,1.27
2022-09-27T20:30:59.518Z,1.40
2022-09-27T20:33:41.158Z,1.40
2022-09-27T20:36:31.216Z,2.00
2022-09-27T20:39:02.785Z,2.40
2022-09-27T20:41:30.966Z,1.90
2022-09-27T20:44:00.157Z,1.77
2022-09-27T20:46:26.863Z,1.97
2022-09-27T20:48:54.261Z,1.53
2022-09-27T20:51:21.015Z,2.00
2022-09-27T20:53:51.088Z,2.30
2022-09-27T20:56:19.225Z,1.80
2022-09-27T20:58:46.214Z,1.83
2022-09-27T21:01:12.827Z,2.10
2022-09-27T21:03:39.252Z,1.50
2022-09-27T21:06:05.999Z,2.10
2022-09-27T21:08:34.005Z,2.03
2022-09-27T21:11:04.440Z,2.20
2022-09-27T21:13:30.800Z,1.80
2022-09-27T21:16:01.153Z,1.50
2022-09-27T21:18:27.622Z,2.00
2022-09-27T21:20:57.904Z,2.00
2022-09-27T21:23:24.286Z,1.80
2022-09-27T21:25:59.916Z,1.80
2022-09-27T21:28:26.289Z,1.70
2022-09-27T21:30:52.585Z,1.80
2022-09-27T21:33:18.929Z,1.53
2022-09-27T21:35:49.524Z,1.80
2022-09-27T21:38:16.214Z,1.90
2022-09-27T21:40:42.884Z,2.70
2022-09-27T21:43:09.541Z,3.00
2022-09-27T21:45:35.864Z,2.30
2022-09-27T21:48:02.218Z,2.57
2022-09-27T21:50:28.553Z,2.00
2022-09-27T21:52:58.017Z,2.17
2022-09-27T21:55:24.548Z,1.90
2022-09-27T21:57:50.876Z,1.83
2022-09-27T22:00:17.209Z,1.73
2022-09-27T22:02:43.603Z,2.10
2022-09-27T22:05:10.016Z,1.70
2022-09-27T22:07:36.507Z,1.53
2022-09-27T22:10:03.040Z,2.00
2022-09-27T22:12:29.393Z,1.83
2022-09-27T22:14:55.698Z,2.20
2022-09-27T22:17:22.033Z,1.53
2022-09-27T22:19:48.393Z,1.67
2022-09-27T22:22:14.740Z,1.60
2022-09-27T22:24:41.062Z,1.57
2022-09-27T22:27:07.558Z,1.40
2022-09-27T22:29:33.906Z,1.50
2022-09-27T22:32:00.366Z,1.50
2022-09-27T22:34:31.051Z,1.17
2022-09-27T22:36:58.361Z,1.30
2022-09-27T22:39:24.784Z,1.40
2022-09-27T22:41:51.141Z,1.60
2022-09-27T22:44:17.492Z,1.43
2022-09-27T22:46:44.308Z,1.20
2022-09-27T22:49:10.741Z,1.40
2022-09-27T22:51:37.074Z,1.70
2022-09-27T22:54:03.572Z,1.30
2022-09-27T22:56:29.891Z,1.50
2022-09-27T22:58:56.233Z,1.63
2022-09-27T23:01:23.493Z,1.00
2022-09-27T23:03:50.957Z,1.67
2022-09-27T23:06:18.317Z,1.30
2022-09-27T23:08:44.819Z,1.40
2022-09-27T23:11:12.589Z,1.20
2022-09-27T23:13:40.201Z,1.50
2022-09-27T23:16:14.417Z,1.07
2022-09-27T23:18:41.207Z,1.30
2022-09-27T23:21:08.417Z,1.23
2022-09-27T23:23:35.781Z,1.20
2022-09-27T23:26:04.387Z,1.10
2022-09-27T23:28:31.190Z,1.10
2022-09-27T23:31:03.541Z,1.10
2022-09-27T23:33:30.043Z,1.20
2022-09-27T23:35:56.409Z,1.30
2022-09-27T23:38:22.920Z,1.10
2022-09-27T23:40:49.345Z,1.43
2022-09-27T23:43:15.701Z,1.10
2022-09-27T23:45:43.437Z,1.30
2022-09-27T23:48:11.781Z,1.10
2022-09-27T23:50:38.217Z,1.20
2022-09-27T23:53:04.519Z,1.13
2022-09-27T23:55:30.866Z,1.63
2022-09-27T23:57:57.174Z,1.07
